Time;durP1;ratioP1;P1;durP2;ratioP2;P2;SDS_P1;SDS_P2;PMS_P1;PMS_P2;Temp;Humidity;BMP_temperature;BMP_pressure;BME280_temperature;BME280_humidity;BME280_pressure;Samples;Min_cycle;Max_cycle;Signal;HPM_P1;HPM_P2
2022/03/22 00:00:49;;;;;;;22.00;9.13;;;;;;;;;;5033977;28;20434;-73
2022/03/22 00:03:16;;;;;;;19.63;8.67;;;4.90;1.00;;;;;;5033324;28;20427;-73
2022/03/22 00:05:44;;;;;;;26.90;9.47;;;;;;;;;;5033598;28;20423;-73
2022/03/22 00:08:10;;;;;;;16.83;7.75;;;;;;;;;;5032821;28;20419;-73
2022/03/22 00:10:37;;;;;;;26.00;9.80;;;;;;;;;;5033487;28;20179;-73
2022/03/22 00:13:05;;;;;;;22.70;9.10;;;4.70;1.00;;;;;;5032832;28;20415;-74
2022/03/22 00:15:32;;;;;;;31.38;7.82;;;;;;;;;;5033515;28;20822;-73
2022/03/22 00:17:59;;;;;;;20.73;9.10;;;;;;;;;;5032815;28;20191;-72
2022/03/22 00:20:25;;;;;;;20.00;8.87;;;;;;;;;;5033334;28;20419;-72
2022/03/22 00:22:51;;;;;;;26.10;11.00;;;;;;;;;;5032930;28;20499;-72
2022/03/22 00:25:17;;;;;;;20.20;9.03;;;;;;;;;;5033256;28;20412;-72
2022/03/22 00:27:53;;;;;;;28.50;11.70;;;4.40;1.00;;;;;;5032637;28;20846;-72
2022/03/22 00:30:24;;;;;;;23.33;8.20;;;4.40;1.00;;;;;;5015855;28;20957;-73
2022/03/22 00:32:53;;;;;;;24.87;8.73;;;4.30;1.00;;;;;;5033063;28;20450;-73
2022/03/22 00:35:20;;;;;;;21.77;9.00;;;;;;;;;;5033104;28;20848;-73
2022/03/22 00:37:49;;;;;;;23.98;10.80;;;;;;;;;;5032560;28;20419;-72
2022/03/22 00:40:19;;;;;;;26.73;11.23;;;;;;;;;;5032699;28;20171;-72
2022/03/22 00:42:48;;;;;;;29.33;12.90;;;;;;;;;;5032228;28;20192;-73
2022/03/22 00:45:16;;;;;;;24.48;9.32;;;4.10;1.00;;;;;;5033208;28;20178;-73
2022/03/22 00:47:43;;;;;;;27.75;11.18;;;;;;;;;;5032088;28;20168;-73
2022/03/22 00:50:09;;;;;;;22.38;8.57;;;;;;;;;;5032931;28;20192;-73
2022/03/22 00:52:35;;;;;;;27.83;11.93;;;;;;;;;;5032568;28;20597;-73
2022/03/22 00:55:02;;;;;;;23.27;11.00;;;;;;;;;;5032737;28;20180;-73
2022/03/22 00:57:28;;;;;;;32.28;12.45;;;;;;;;;;5032262;28;20180;-73
2022/03/22 01:00:06;;;;;;;24.58;11.80;;;;;;;;;;5033120;28;20713;-73
2022/03/22 01:02:34;;;;;;;32.65;11.93;;;;;;;;;;5032224;28;20208;-73
2022/03/22 01:05:00;;;;;;;22.60;10.85;;;;;;;;;;5032637;28;20568;-73
2022/03/22 01:07:27;;;;;;;31.80;12.30;;;;;;;;;;5032384;28;20180;-73
2022/03/22 01:09:53;;;;;;;27.47;12.17;;;;;;;;;;5019384;28;20218;-73
2022/03/22 01:12:19;;;;;;;29.73;12.80;;;;;;;;;;5032285;28;20462;-73
2022/03/22 01:14:45;;;;;;;26.33;11.65;;;;;;;;;;5032919;28;20180;-72
2022/03/22 01:17:11;;;;;;;40.20;12.90;;;;;;;;;;5032072;28;20550;-72
2022/03/22 01:19:38;;;;;;;28.43;12.13;;;;;;;;;;5019279;28;20427;-72
2022/03/22 01:22:05;;;;;;;35.10;12.75;;;3.40;1.00;;;;;;5032292;28;21114;-73
2022/03/22 01:24:31;;;;;;;35.25;12.23;;;;;;;;;;5032140;28;20184;-72
2022/03/22 01:26:57;;;;;;;27.43;12.33;;;;;;;;;;5035129;28;20543;-73
2022/03/22 01:29:23;;;;;;;36.03;12.80;;;;;;;;;;5035933;28;20429;-73
2022/03/22 01:31:50;;;;;;;24.83;11.30;;;;;;;;;;5036832;28;20463;-72
2022/03/22 01:34:16;;;;;;;29.95;12.15;;;;;;;;;;5023283;28;20181;-72
2022/03/22 01:36:42;;;;;;;36.42;13.07;;;;;;;;;;5036186;28;20326;-72
2022/03/22 01:39:08;;;;;;;26.60;12.00;;;;;;;;;;5035883;28;20187;-72
2022/03/22 01:41:34;;;;;;;47.50;13.33;;;;;;;;;;5035850;28;20602;-73
2022/03/22 01:44:00;;;;;;;30.17;11.68;;;;;;;;;;5022705;28;20433;-73
2022/03/22 01:46:27;;;;;;;29.10;12.85;;;;;;;;;;5036679;28;20176;-72
2022/03/22 01:48:54;;;;;;;26.90;11.30;;;;;;;;;;5035360;28;20172;-72
2022/03/22 01:51:23;;;;;;;24.15;11.70;;;;;;;;;;5036098;28;20212;-72
2022/03/22 01:53:50;;;;;;;28.33;11.77;;;2.80;1.00;;;;;;5035770;28;20255;-72
2022/03/22 01:56:16;;;;;;;23.10;10.68;;;;;;;;;;5036109;28;20191;-72
2022/03/22 01:58:42;;;;;;;28.50;11.68;;;;;;;;;;5035403;28;20180;-73
2022/03/22 02:06:41;;;;;;;29.58;12.60;;;2.70;1.00;;;;;;5035357;28;20234;-72
2022/03/22 02:09:07;;;;;;;22.70;11.05;;;;;;;;;;5035260;28;20689;-72
2022/03/22 02:11:34;;;;;;;36.05;12.18;;;;;;;;;;5035518;28;20184;-72
2022/03/22 02:14:00;;;;;;;26.95;12.25;;;;;;;;;;5035495;28;20177;-72
2022/03/22 02:16:27;;;;;;;25.67;11.27;;;;;;;;;;5036069;28;20194;-72
2022/03/22 02:18:53;;;;;;;25.00;11.93;;;2.40;1.00;;;;;;5035131;28;20176;-73
2022/03/22 02:21:19;;;;;;;28.48;11.80;;;;;;;;;;5035447;28;20200;-73
2022/03/22 02:23:53;;;;;;;34.17;12.20;;;2.30;1.00;;;;;;5034894;28;20275;-73
2022/03/22 02:26:20;;;;;;;25.50;11.93;;;2.30;1.00;;;;;;5023369;28;20183;-72
2022/03/22 02:28:46;;;;;;;30.75;12.52;;;;;;;;;;5034996;28;20176;-72
2022/03/22 02:31:13;;;;;;;25.52;11.40;;;;;;;;;;5036199;28;20180;-73
2022/03/22 02:33:43;;;;;;;26.42;11.07;;;;;;;;;;5035294;28;20627;-73
2022/03/22 02:36:10;;;;;;;26.23;10.57;;;;;;;;;;5035356;28;20183;-73
2022/03/22 02:38:36;;;;;;;31.58;12.52;;;;;;;;;;5034498;28;20215;-73
2022/03/22 02:41:02;;;;;;;28.10;12.65;;;;;;;;;;5035117;28;20180;-73
2022/03/22 02:43:28;;;;;;;23.85;10.80;;;;;;;;;;5035124;28;20187;-73
2022/03/22 02:45:54;;;;;;;23.07;11.63;;;;;;;;;;5035533;28;20172;-72
2022/03/22 02:48:20;;;;;;;24.63;11.57;;;;;;;;;;5034426;28;20959;-72
2022/03/22 02:50:46;;;;;;;23.03;11.00;;;;;;;;;;5034726;28;20423;-72
2022/03/22 02:53:12;;;;;;;31.10;12.38;;;;;;;;;;5034834;28;20403;-72
2022/03/22 02:55:38;;;;;;;22.87;12.17;;;;;;;;;;5034765;28;20512;-72
2022/03/22 02:58:04;;;;;;;32.42;12.50;;;;;;;;;;5034346;28;20427;-72
2022/03/22 03:00:34;;;;;;;23.23;11.75;;;;;;;;;;5034058;28;20267;-72
2022/03/22 03:03:00;;;;;;;22.73;11.63;;;;;;;;;;5034200;28;20196;-72
2022/03/22 03:05:27;;;;;;;29.25;12.30;;;;;;;;;;5034457;28;20180;-72
2022/03/22 03:07:53;;;;;;;22.73;11.25;;;;;;;;;;5034425;28;20522;-72
2022/03/22 03:10:19;;;;;;;27.10;11.45;;;;;;;;;;5034383;28;20224;-73
2022/03/22 03:12:45;;;;;;;24.70;11.63;;;;;;;;;;5034070;28;20544;-73
2022/03/22 03:15:12;;;;;;;29.38;11.55;;;;;;;;;;5034565;28;20184;-73
2022/03/22 03:17:38;;;;;;;22.05;11.70;;;;;;;;;;5034296;28;20514;-73
2022/03/22 03:20:06;;;;;;;33.33;12.07;;;1.70;1.00;;;;;;5034147;28;20172;-73
2022/03/22 03:22:32;;;;;;;28.67;12.43;;;;;;;;;;5030252;28;20209;-73
2022/03/22 03:24:58;;;;;;;28.90;11.75;;;1.70;1.00;;;;;;5014733;28;20204;-73
2022/03/22 03:27:24;;;;;;;22.67;11.85;;;;;;;;;;5014301;28;20646;-73
2022/03/22 03:29:50;;;;;;;27.70;11.70;;;;;;;;;;5014397;28;20196;-73
2022/03/22 03:32:16;;;;;;;40.08;12.98;;;;;;;;;;5014592;28;20440;-73
2022/03/22 03:34:42;;;;;;;27.45;12.10;;;;;;;;;;5014221;28;20185;-72
2022/03/22 03:37:08;;;;;;;28.20;12.13;;;;;;;;;;5014273;28;20814;-72
2022/03/22 03:39:37;;;;;;;21.23;10.50;;;;;;;;;;5014441;28;20415;-73
2022/03/22 03:42:04;;;;;;;22.67;11.52;;;;;;;;;;5013554;28;20207;-73
2022/03/22 03:47:18;;;;;;;34.53;13.18;;;;;;;;;;5008801;28;20192;-72
2022/03/22 03:49:48;;;;;;;25.05;11.90;;;;;;;;;;5013350;28;20177;-73
2022/03/22 03:52:18;;;;;;;28.45;13.20;;;1.30;1.00;;;;;;5002456;28;20263;-73
2022/03/22 03:54:45;;;;;;;27.40;12.20;;;;;;;;;;5013775;28;20185;-73
2022/03/22 03:57:11;;;;;;;30.30;13.30;;;1.30;1.00;;;;;;5014039;28;20546;-73
2022/03/22 03:59:38;;;;;;;30.33;13.07;;;;;;;;;;5013617;28;20185;-73
2022/03/22 04:02:08;;;;;;;30.50;13.13;;;1.30;1.00;;;;;;5014168;28;20200;-73
2022/03/22 04:04:38;;;;;;;28.10;12.38;;;1.30;1.00;;;;;;5013633;28;20189;-73
2022/03/22 04:07:05;;;;;;;28.40;12.50;;;1.20;1.00;;;;;;5013339;28;20231;-73
2022/03/22 04:09:35;;;;;;;25.30;12.35;;;1.20;1.00;;;;;;5013418;28;20259;-73
2022/03/22 04:12:02;;;;;;;31.17;13.30;;;;;;;;;;5013834;28;20183;-73
2022/03/22 04:14:28;;;;;;;26.95;12.00;;;;;;;;;;5013438;28;20183;-73
2022/03/22 04:16:57;;;;;;;27.55;11.00;;;;;;;;;;5013724;28;20207;-73
2022/03/22 04:19:23;;;;;;;28.23;13.25;;;;;;;;;;5012980;28;20211;-73
2022/03/22 04:21:50;;;;;;;25.33;12.35;;;;;;;;;;5013589;28;20285;-73
2022/03/22 04:24:16;;;;;;;26.58;12.05;;;;;;;;;;5031287;28;20203;-73
2022/03/22 04:26:43;;;;;;;34.53;12.30;;;;;;;;;;5032702;28;20570;-73
2022/03/22 04:34:39;;;;;;;23.15;11.63;;;;;;;;;;5033309;28;20187;-73
2022/03/22 04:37:07;;;;;;;27.20;12.18;;;1.00;1.00;;;;;;5032615;28;20266;-73
2022/03/22 04:39:33;;;;;;;23.25;12.23;;;;;;;;;;5033105;28;20176;-73
2022/03/22 04:42:00;;;;;;;23.33;11.40;;;1.00;1.00;;;;;;5032066;28;20204;-73
2022/03/22 04:44:29;;;;;;;29.48;12.55;;;;;;;;;;5032958;28;20212;-73
2022/03/22 04:46:59;;;;;;;31.08;13.10;;;1.00;1.00;;;;;;5032363;28;20234;-73
2022/03/22 04:49:27;;;;;;;28.83;12.00;;;1.00;1.00;;;;;;5032565;28;20176;-73
2022/03/22 04:57:23;;;;;;;31.52;12.52;;;;;;;;;;5030369;28;20607;-73
2022/03/22 04:59:49;;;;;;;32.42;12.50;;;;;;;;;;5031625;28;20275;-73
2022/03/22 05:02:15;;;;;;;27.73;12.30;;;;;;;;;;5032513;28;20250;-73
2022/03/22 05:04:41;;;;;;;36.88;12.82;;;;;;;;;;5032577;28;20238;-73
2022/03/22 05:07:07;;;;;;;24.48;12.23;;;;;;;;;;5032428;28;20177;-73
2022/03/22 05:09:33;;;;;;;33.37;13.70;;;;;;;;;;5032426;28;20226;-73
2022/03/22 05:12:00;;;;;;;26.33;12.73;;;0.80;1.00;;;;;;5032574;28;20443;-73
2022/03/22 05:14:26;;;;;;;34.22;12.75;;;;;;;;;;5032224;28;20517;-73
2022/03/22 05:16:56;;;;;;;22.85;11.65;;;;;;;;;;5032609;28;20217;-72
2022/03/22 05:19:23;;;;;;;27.65;13.18;;;;;;;;;;5032327;28;20231;-73
2022/03/22 05:21:49;;;;;;;25.50;12.95;;;;;;;;;;5032250;28;20378;-73
2022/03/22 05:24:15;;;;;;;27.73;12.75;;;;;;;;;;5031936;28;20529;-73
2022/03/22 05:26:41;;;;;;;21.85;11.52;;;;;;;;;;5032215;28;20180;-73
2022/03/22 05:29:07;;;;;;;24.80;12.37;;;;;;;;;;5032228;28;20176;-73
2022/03/22 05:31:34;;;;;;;31.38;13.07;;;;;;;;;;5032024;28;20477;-73
2022/03/22 05:34:00;;;;;;;28.50;12.77;;;;;;;;;;5031907;28;20176;-73
2022/03/22 05:36:26;;;;;;;28.20;12.77;;;;;;;;;;5032178;28;20180;-73
2022/03/22 05:38:52;;;;;;;33.33;13.30;;;;;;;;;;5014141;28;20279;-73
2022/03/22 05:41:18;;;;;;;31.27;12.52;;;0.90;1.00;;;;;;5032384;28;20490;-73
2022/03/22 05:43:45;;;;;;;33.80;13.93;;;;;;;;;;5031533;28;20188;-73
2022/03/22 05:46:11;;;;;;;31.90;12.30;;;;;;;;;;5032050;28;20529;-73
2022/03/22 05:48:40;;;;;;;29.33;13.13;;;;;;;;;;5032117;28;20214;-73
2022/03/22 05:51:06;;;;;;;25.83;13.07;;;;;;;;;;5031807;28;20234;-73
2022/03/22 05:53:32;;;;;;;28.63;12.70;;;;;;;;;;5031847;28;20721;-73
2022/03/22 05:55:58;;;;;;;35.88;14.35;;;;;;;;;;5032358;28;20173;-73
2022/03/22 05:58:24;;;;;;;30.60;13.87;;;;;;;;;;5031852;28;20196;-73
2022/03/22 06:00:52;;;;;;;28.63;13.05;;;;;;;;;;5031575;28;20427;-73
2022/03/22 06:03:18;;;;;;;31.10;13.30;;;;;;;;;;5032165;28;20505;-73
2022/03/22 06:05:44;;;;;;;29.23;13.23;;;;;;;;;;5032237;28;20635;-73
2022/03/22 06:08:10;;;;;;;27.73;12.93;;;;;;;;;;5031755;28;20446;-73
2022/03/22 06:10:36;;;;;;;38.08;14.07;;;;;;;;;;5031904;28;20176;-73
2022/03/22 06:13:03;;;;;;;25.17;12.55;;;;;;;;;;5034498;28;20271;-73
2022/03/22 06:15:30;;;;;;;28.15;12.45;;;1.40;1.00;;;;;;5035491;28;20271;-73
2022/03/22 06:18:03;;;;;;;59.67;14.00;;;;;;;;;;5035064;28;20187;-73
2022/03/22 06:20:34;;;;;;;30.60;13.50;;;1.60;1.00;;;;;;5037277;28;20212;-73
2022/03/22 06:23:01;;;;;;;24.95;12.38;;;1.70;1.00;;;;;;5034894;28;20212;-73
2022/03/22 06:25:27;;;;;;;32.65;13.45;;;;;;;;;;5034333;28;20557;-73
2022/03/22 06:27:54;;;;;;;29.73;12.98;;;1.80;1.00;;;;;;5035379;28;20179;-73
2022/03/22 06:30:21;;;;;;;30.25;12.20;;;;;;;;;;5035046;28;20645;-73
2022/03/22 06:32:54;;;;;;;26.25;12.30;;;2.00;1.00;;;;;;5035453;28;20188;-73
2022/03/22 06:35:32;;;;;;;27.63;12.25;;;2.10;1.00;;;;;;5034964;28;20275;-74
2022/03/22 06:37:59;;;;;;;24.38;12.45;;;;;;;;;;5035227;28;20180;-74
2022/03/22 06:40:29;;;;;;;27.30;12.57;;;2.40;1.00;;;;;;5035024;28;20181;-73
2022/03/22 06:42:58;;;;;;;29.98;12.85;;;;;;;;;;5034619;28;20203;-74
2022/03/22 06:45:24;;;;;;;72.53;15.52;;;;;;;;;;5020339;28;20190;-73
2022/03/22 06:47:51;;;;;;;28.35;11.93;;;;;;;;;;5034381;28;20192;-73
2022/03/22 06:50:18;;;;;;;25.73;12.07;;;2.90;1.00;;;;;;5034678;28;20176;-73
2022/03/22 06:52:44;;;;;;;24.83;11.73;;;;;;;;;;5030610;28;20235;-74
2022/03/22 06:55:11;;;;;;;21.65;10.60;;;;;;;;;;5034552;28;20231;-73
2022/03/22 06:57:37;;;;;;;26.30;11.88;;;;;;;;;;5034703;28;20176;-73
2022/03/22 07:00:09;;;;;;;32.67;11.82;;;3.50;1.00;;;;;;5034477;28;20215;-73
2022/03/22 07:02:36;;;;;;;26.15;11.70;;;3.70;1.00;;;;;;5034608;28;20196;-74
2022/03/22 07:05:05;;;;;;;34.80;12.40;;;3.90;1.00;;;;;;5033471;28;20181;-73
2022/03/22 07:07:30;;;;;;;25.77;11.70;;;;;;;;;;5034461;28;20534;-73
2022/03/22 07:09:56;;;;;;;23.60;9.17;;;;;;;;;;5021749;28;20322;-73
2022/03/22 07:12:22;;;;;;;26.93;8.60;;;;;;;;;;5034393;28;20429;-73
2022/03/22 07:14:49;;;;;;;33.37;9.77;;;;;;;;;;5020985;28;20418;-73
2022/03/22 07:17:15;;;;;;;23.33;9.00;;;;;;;;;;5034555;28;20411;-73
2022/03/22 07:19:42;;;;;;;21.20;8.90;;;;;;;;;;5023650;28;20505;-73
2022/03/22 07:22:10;;;;;;;33.70;8.73;;;;;;;;;;5033265;28;20463;-73
2022/03/22 07:24:36;;;;;;;19.17;8.40;;;;;;;;;;5013349;28;20408;-73
2022/03/22 07:27:04;;;;;;;25.07;9.13;;;;;;;;;;5014441;28;20419;-74
2022/03/22 07:29:30;;;;;;;19.27;8.30;;;;;;;;;;5014049;28;20427;-74
2022/03/22 07:31:58;;;;;;;29.67;9.10;;;;;;;;;;5014206;28;20494;-74
2022/03/22 07:34:24;;;;;;;22.17;8.53;;;;;;;;;;5014596;28;20431;-74
2022/03/22 07:36:54;;;;;;;26.17;9.00;;;6.30;1.00;;;;;;5013261;28;20793;-73
2022/03/22 07:39:21;;;;;;;26.37;9.47;;;6.40;1.00;;;;;;5013896;28;20451;-74
2022/03/22 07:41:48;;;;;;;29.53;8.90;;;;;;;;;;5013138;28;20467;-74
2022/03/22 07:44:15;;;;;;;27.30;8.93;;;;;;;;;;5012821;28;20427;-74
2022/03/22 07:46:45;;;;;;;42.53;11.30;;;6.90;1.00;;;;;;5003226;28;20435;-74
2022/03/22 07:54:42;;;;;;;37.40;10.87;;;;;;;;;;5003018;28;20458;-74
2022/03/22 07:57:08;;;;;;;48.03;12.43;;;;;;;;;;5004439;28;20756;-74
2022/03/22 07:59:35;;;;;;;19.40;9.20;;;;;;;;;;5007508;28;20551;-74
2022/03/22 08:02:01;;;;;;;43.87;11.80;;;;;;;;;;5009760;28;20471;-75
2022/03/22 08:04:27;;;;;;;33.03;10.70;;;;;;;;;;5013156;28;20434;-73
2022/03/22 08:06:53;;;;;;;22.33;9.50;;;;;;;;;;5013153;28;20502;-73
2022/03/22 08:09:19;;;;;;;32.03;11.13;;;;;;;;;;5013041;28;20507;-73
2022/03/22 08:11:45;;;;;;;22.20;10.07;;;;;;;;;;5012118;28;20459;-73
2022/03/22 08:14:12;;;;;;;33.27;11.67;;;;;;;;;;5013254;28;20912;-73
2022/03/22 08:16:40;;;;;;;25.40;10.60;;;;;;;;;;5013569;28;20900;-73
2022/03/22 08:19:07;;;;;;;29.20;11.40;;;;;;;;;;5013079;28;20432;-73
2022/03/22 08:21:33;;;;;;;28.43;10.80;;;;;;;;;;5012772;28;20503;-73
2022/03/22 08:23:59;;;;;;;22.53;10.20;;;;;;;;;;5029173;28;20804;-73
2022/03/22 08:26:25;;;;;;;306.83;34.73;;;;;;;;;;5026811;28;20406;-73
2022/03/22 08:28:51;;;;;;;25.40;10.70;;;;;;;;;;5016731;28;20843;-73
2022/03/22 08:31:17;;;;;;;43.63;11.57;;;;;;;;;;5032499;28;20414;-73
2022/03/22 08:33:43;;;;;;;24.27;10.93;;;;;;;;;;5038339;28;20430;-74
2022/03/22 08:36:09;;;;;;;31.83;11.07;;;;;;;;;;5031970;28;20430;-74
2022/03/22 08:38:35;;;;;;;32.63;11.00;;;;;;;;;;5032586;28;20394;-74
2022/03/22 08:41:01;;;;;;;34.87;11.20;;;;;;;;;;5032240;28;20427;-74
2022/03/22 08:43:30;;;;;;;24.20;11.20;;;;;;;;;;5032141;28;20465;-74
2022/03/22 08:45:56;;;;;;;393.93;42.43;;;;;;;;;;5026354;28;20484;-75
2022/03/22 08:48:22;;;;;;;28.00;10.20;;;;;;;;;;5029287;28;20552;-74
2022/03/22 08:50:49;;;;;;;27.30;10.67;;;9.70;99.90;;;;;;5032491;28;20438;-73
2022/03/22 08:53:17;;;;;;;23.07;10.43;;;;;;;;;;5031987;28;20431;-73
2022/03/22 08:55:44;;;;;;;23.70;10.30;;;;;;;;;;5032239;28;20434;-73
2022/03/22 08:58:10;;;;;;;28.97;11.13;;;;;;;;;;5032023;28;20483;-73
2022/03/22 09:00:37;;;;;;;24.40;9.87;;;;;;;;;;5032518;28;20930;-73
2022/03/22 09:03:04;;;;;;;29.13;9.30;;;;;;;;;;5032071;28;20440;-73
2022/03/22 09:08:14;;;;;;;16.93;7.67;;;;;;;;;;5031551;28;20458;-74
2022/03/22 09:10:41;;;;;;;15.33;7.80;;;;;;;;;;5031862;28;20421;-74
2022/03/22 09:13:08;;;;;;;24.77;8.80;;;;;;;;;;5026410;28;20419;-75
2022/03/22 09:15:39;;;;;;;19.70;8.87;;;10.80;99.90;;;;;;5031815;28;20455;-74
2022/03/22 09:18:05;;;;;;;25.50;8.90;;;;;;;;;;5031769;28;20450;-74
2022/03/22 09:20:32;;;;;;;43.00;10.93;;;;;;;;;;5031877;28;20401;-75
2022/03/22 09:22:59;;;;;;;29.53;9.23;;;11.10;99.90;;;;;;5031769;28;20441;-75
2022/03/22 09:25:27;;;;;;;23.53;9.97;;;;;;;;;;5032090;28;20401;-74
2022/03/22 09:27:53;;;;;;;22.40;8.90;;;;;;;;;;5031550;28;20446;-75
2022/03/22 09:30:19;;;;;;;33.40;9.67;;;;;;;;;;5031732;28;20521;-77
2022/03/22 09:32:46;;;;;;;23.43;9.20;;;;;;;;;;5032589;28;20419;-77
2022/03/22 09:35:13;;;;;;;37.90;10.33;;;;;;;;;;5032083;28;20808;-77
2022/03/22 09:37:43;;;;;;;20.90;8.90;;;11.60;99.90;;;;;;5031672;28;20397;-79
2022/03/22 09:40:18;;;;;;;23.57;8.73;;;11.70;99.90;;;;;;5027304;28;20397;-77
2022/03/22 09:42:45;;;;;;;25.97;9.50;;;;;;;;;;5028843;28;20458;-78
2022/03/22 09:45:17;;;;;;;22.27;9.40;;;11.90;99.90;;;;;;5032785;28;20410;-77
2022/03/22 09:47:45;;;;;;;39.37;10.90;;;;;;;;;;5034141;28;20413;-77
2022/03/22 09:50:16;;;;;;;22.40;8.87;;;12.00;99.90;;;;;;5035700;28;20778;-77
2022/03/22 09:52:57;;;;;;;20.97;9.60;;;;;;;;;;5036803;28;20427;-77
2022/03/22 09:55:28;;;;;;;22.87;7.87;;;;;;;;;;5032615;28;20862;-76
2022/03/22 09:57:57;;;;;;;29.47;10.47;;;;;;;;;;5036361;28;20937;-76
2022/03/22 10:00:25;;;;;;;28.23;9.63;;;;;;;;;;5040036;28;20417;-75
2022/03/22 10:02:57;;;;;;;23.27;9.70;;;;;;;;;;5019281;28;20793;-75
2022/03/22 10:05:26;;;;;;;20.53;8.57;;;12.40;99.90;;;;;;5036944;28;20381;-76
2022/03/22 10:08:08;;;;;;;18.40;8.10;;;12.20;99.90;;;;;;5036720;28;20773;-76
2022/03/22 10:11:05;;;;;;;24.23;8.80;;;12.50;99.90;;;;;;5035859;28;20393;-75
2022/03/22 10:13:33;;;;;;;20.33;8.93;;;;;;;;;;4936740;29;20871;-75
2022/03/22 10:16:06;;;;;;;46.97;12.10;;;12.80;99.90;;;;;;4935064;29;20402;-74
2022/03/22 10:18:39;;;;;;;45.27;11.30;;;;;;;;;;4936800;29;20435;-75
2022/03/22 10:21:06;;;;;;;19.13;9.10;;;;;;;;;;4937230;29;20429;-75
2022/03/22 10:23:32;;;;;;;21.53;9.27;;;;;;;;;;4936083;29;20476;-74
2022/03/22 10:26:09;;;;;;;47.30;12.20;;;;;;;;;;4935491;29;20435;-74
2022/03/22 10:29:20;;;;;;;16.50;8.73;;;13.10;99.90;;;;;;4936105;29;20411;-77
2022/03/22 10:32:03;;;;;;;16.80;8.93;;;;;;;;;;4935800;29;20801;-79
2022/03/22 10:35:34;;;;;;;27.60;9.20;;;13.20;99.90;;;;;;4936494;29;20763;-79
2022/03/22 10:38:05;;;;;;;19.83;8.93;;;13.30;99.90;;;;;;4871198;29;20459;-77
2022/03/22 10:40:41;;;;;;;17.57;7.53;;;13.40;99.90;;;;;;4864148;29;20437;-77
2022/03/22 10:43:07;;;;;;;19.57;8.70;;;;;;;;;;4866345;29;20441;-76
2022/03/22 10:45:44;;;;;;;21.30;8.57;;;;;;;;;;4861450;29;20480;-77
2022/03/22 10:48:10;;;;;;;24.90;9.20;;;;;;;;;;4854141;29;20421;-79
2022/03/22 10:50:39;;;;;;;12.73;7.60;;;;;;;;;;4903699;29;20411;-79
2022/03/22 10:53:22;;;;;;;26.57;9.33;;;;;;;;;;4917180;29;20404;-77
2022/03/22 10:55:48;;;;;;;23.20;8.40;;;13.90;99.90;;;;;;4912582;29;20418;-77
2022/03/22 10:58:17;;;;;;;21.80;9.17;;;;;;;;;;4909987;29;20415;-77
2022/03/22 11:00:45;;;;;;;15.87;7.97;;;14.00;99.90;;;;;;4916926;29;20429;-77
2022/03/22 11:03:14;;;;;;;19.27;8.27;;;;;;;;;;4915899;29;20514;-77
2022/03/22 11:09:04;;;;;;;14.60;7.80;;;;;;;;;;4916150;29;20430;-80
2022/03/22 11:14:58;;;;;;;17.87;8.80;;;14.50;99.90;;;;;;5015523;28;20402;-80
2022/03/22 11:17:26;;;;;;;17.90;9.00;;;;;;;;;;5015329;28;20430;-80
2022/03/22 11:20:14;;;;;;;18.40;8.83;;;14.60;99.90;;;;;;5015612;28;20400;-80
2022/03/22 11:22:51;;;;;;;23.23;8.60;;;14.70;99.90;;;;;;5020262;28;20482;-78
2022/03/22 11:25:24;;;;;;;23.10;9.90;;;14.60;99.90;;;;;;5034855;28;20398;-78
2022/03/22 11:28:17;;;;;;;21.70;8.70;;;14.70;99.90;;;;;;5035114;28;20422;-77
2022/03/22 11:31:09;;;;;;;24.20;8.90;;;14.80;99.90;;;;;;5029603;28;20480;-77
2022/03/22 11:36:37;;;;;;;20.00;9.20;;;;;;;;;;5033434;28;20481;-79
2022/03/22 11:39:09;;;;;;;29.03;10.10;;;;;;;;;;5034458;28;20377;-77
2022/03/22 11:44:29;;;;;;;24.93;9.00;;;15.20;99.90;;;;;;5034503;28;20424;-76
2022/03/22 11:47:16;;;;;;;28.17;9.27;;;15.40;99.90;;;;;;5034427;28;20400;-76
2022/03/22 11:50:03;;;;;;;20.80;9.13;;;15.50;99.90;;;;;;5034722;28;20804;-76
2022/03/22 11:52:39;;;;;;;39.77;11.40;;;;;;;;;;5034881;28;20745;-79
2022/03/22 11:55:12;;;;;;;32.13;10.20;;;15.70;99.90;;;;;;5023063;28;20422;-78
2022/03/22 11:57:56;;;;;;;26.60;9.73;;;15.90;99.90;;;;;;5033481;28;20441;-78
2022/03/22 12:00:51;;;;;;;13.87;8.07;;;15.90;99.90;;;;;;5023304;28;20508;-78
2022/03/22 12:03:53;;;;;;;21.77;8.80;;;15.90;99.90;;;;;;4954496;29;20589;-78
2022/03/22 12:06:34;;;;;;;24.77;9.43;;;;;;;;;;4954740;29;20409;-78
2022/03/22 12:12:27;;;;;;;38.37;9.90;;;;;;;;;;4951247;28;20473;-73
2022/03/22 12:14:54;;;;;;;21.40;9.37;;;16.20;99.90;;;;;;4940972;29;20909;-71
2022/03/22 12:17:20;;;;;;;58.97;12.33;;;;;;;;;;4952732;29;20481;-75
2022/03/22 12:19:46;;;;;;;78.63;14.10;;;;;;;;;;4952732;28;20958;-74
2022/03/22 12:22:13;;;;;;;511.20;45.63;;;;;;;;;;4950350;28;20499;-74
2022/03/22 12:24:40;;;;;;;25.07;9.20;;;;;;;;;;4949808;28;20451;-74
2022/03/22 12:27:10;;;;;;;23.50;9.90;;;;;;;;;;4953339;29;20412;-73
2022/03/22 12:29:43;;;;;;;26.87;9.70;;;16.70;99.90;;;;;;4953085;29;20770;-74
2022/03/22 12:32:17;;;;;;;29.80;10.57;;;16.90;99.90;;;;;;4953282;29;20547;-73
2022/03/22 12:34:43;;;;;;;22.10;9.50;;;;;;;;;;4952883;28;20539;-73
2022/03/22 12:37:10;;;;;;;35.47;10.67;;;;;;;;;;4952742;28;20424;-74
2022/03/22 12:39:37;;;;;;;58.20;11.00;;;;;;;;;;4969461;28;20520;-73
2022/03/22 12:42:04;;;;;;;31.83;10.60;;;;;;;;;;5012916;28;20459;-73
2022/03/22 12:44:31;;;;;;;31.33;8.83;;;;;;;;;;5011110;28;20517;-73
2022/03/22 12:46:57;;;;;;;49.83;11.27;;;;;;;;;;5013472;28;20409;-73
2022/03/22 12:49:25;;;;;;;52.83;11.23;;;;;;;;;;5012970;28;20468;-73
2022/03/22 12:51:51;;;;;;;24.77;8.67;;;;;;;;;;5013796;28;20418;-74
2022/03/22 12:54:17;;;;;;;25.50;9.00;;;;;;;;;;5012769;28;20935;-74
2022/03/22 12:56:48;;;;;;;54.77;10.83;;;17.50;99.90;;;;;;5024250;28;20444;-74
2022/03/22 12:59:18;;;;;;;38.57;10.30;;;;;;;;;;5022104;28;20935;-73
2022/03/22 13:01:44;;;;;;;20.10;7.80;;;;;;;;;;5012121;28;20462;-74
2022/03/22 13:04:10;;;;;;;21.10;8.57;;;;;;;;;;5005982;28;20881;-74
2022/03/22 13:06:36;;;;;;;22.70;7.97;;;;;;;;;;4998538;28;20491;-75
2022/03/22 13:11:47;;;;;;;19.07;7.93;;;;;;;;;;5010701;28;20432;-75
2022/03/22 13:16:59;;;;;;;38.80;9.03;;;;;;;;;;5011768;28;20483;-75
2022/03/22 13:19:32;;;;;;;26.20;9.27;;;;;;;;;;5010825;28;20426;-75
2022/03/22 13:21:59;;;;;;;19.33;7.40;;;;;;;;;;5010058;28;20444;-75
2022/03/22 13:24:26;;;;;;;21.50;7.30;;;18.30;99.90;;;;;;5028714;28;20997;-75
2022/03/22 13:26:52;;;;;;;28.10;8.27;;;;;;;;;;5032096;28;20434;-75
2022/03/22 13:29:19;;;;;;;24.23;7.67;;;;;;;;;;5032775;28;20903;-75
2022/03/22 13:32:04;;;;;;;19.13;6.97;;;;;;;;;;5032992;28;20491;-75
2022/03/22 13:34:37;;;;;;;22.17;7.53;;;18.50;99.90;;;;;;5032730;28;20422;-75
2022/03/22 13:37:13;;;;;;;17.80;6.90;;;;;;;;;;5032897;28;20917;-75
2022/03/22 13:39:50;;;;;;;18.20;7.27;;;18.60;99.90;;;;;;5032166;28;20421;-75
2022/03/22 13:42:23;;;;;;;20.33;8.03;;;;;;;;;;5031991;28;20457;-75
2022/03/22 13:44:56;;;;;;;16.87;7.13;;;18.80;99.90;;;;;;5032388;28;20437;-75
2022/03/22 13:47:29;;;;;;;31.60;8.80;;;;;;;;;;5031757;28;20893;-75
2022/03/22 13:49:55;;;;;;;17.13;7.47;;;;;;;;;;5022916;28;20414;-75
2022/03/22 13:52:27;;;;;;;13.57;7.37;;;19.00;99.90;;;;;;5032579;28;20501;-74
2022/03/22 13:54:57;;;;;;;15.00;7.10;;;;;;;;;;5014537;28;20513;-74
2022/03/22 13:57:26;;;;;;;16.67;7.27;;;;;;;;;;5032697;28;20393;-74
2022/03/22 13:59:59;;;;;;;16.90;7.07;;;;;;;;;;5032157;28;20409;-74
2022/03/22 14:02:25;;;;;;;18.40;7.07;;;;;;;;;;5018727;28;20468;-73
2022/03/22 14:04:51;;;;;;;24.50;8.07;;;;;;;;;;5031890;28;20417;-74
2022/03/22 14:07:17;;;;;;;29.80;8.17;;;;;;;;;;5030376;28;20480;-75
2022/03/22 14:09:43;;;;;;;11.20;6.23;;;;;;;;;;5031607;28;20513;-75
2022/03/22 14:12:10;;;;;;;17.87;7.40;;;;;;;;;;5031606;28;20465;-75
2022/03/22 14:14:36;;;;;;;15.03;7.50;;;;;;;;;;5030219;28;20811;-75
2022/03/22 14:17:02;;;;;;;15.93;6.63;;;;;;;;;;5032084;28;20433;-75
2022/03/22 14:19:28;;;;;;;18.70;6.90;;;;;;;;;;5032061;28;20423;-75
2022/03/22 14:21:54;;;;;;;16.40;6.93;;;;;;;;;;5031921;28;20456;-74
2022/03/22 14:24:20;;;;;;;12.87;6.93;;;;;;;;;;5032114;28;20436;-74
2022/03/22 14:26:46;;;;;;;15.37;7.50;;;;;;;;;;5031824;28;20762;-74
2022/03/22 14:29:12;;;;;;;19.43;7.03;;;;;;;;;;5031883;28;20417;-74
2022/03/22 14:31:39;;;;;;;14.47;6.77;;;;;;;;;;5031873;28;20483;-74
2022/03/22 14:34:05;;;;;;;18.57;7.73;;;;;;;;;;5034441;28;20849;-74
2022/03/22 14:36:31;;;;;;;19.20;7.40;;;;;;;;;;5035091;28;20418;-74
2022/03/22 14:38:57;;;;;;;17.77;7.10;;;;;;;;;;5035679;28;20422;-75
2022/03/22 14:41:26;;;;;;;19.43;7.30;;;;;;;;;;5034652;28;20805;-75
2022/03/22 14:43:55;;;;;;;16.13;7.10;;;19.20;99.90;;;;;;5034972;28;20415;-75
2022/03/22 14:46:22;;;;;;;18.83;8.40;;;;;;;;;;5035182;28;20414;-75
2022/03/22 14:48:49;;;;;;;12.23;5.90;;;;;;;;;;5035088;28;20939;-75
2022/03/22 14:54:02;;;;;;;15.73;6.50;;;19.40;99.90;;;;;;5034920;28;20419;-75
2022/03/22 14:54:05;;;;;;;25.43;7.77;;;;;;;;;;5035062;28;20390;-75